createdAt,value
2023-04-28T00:02:07.078Z,13.90
2023-04-28T00:04:33.703Z,13.90
2023-04-28T00:07:00.388Z,14.00
2023-04-28T00:09:26.864Z,14.00
2023-04-28T00:11:53.327Z,13.90
2023-04-28T00:14:19.832Z,14.00
2023-04-28T00:16:46.539Z,14.00
2023-04-28T00:19:13.282Z,14.00
2023-04-28T00:21:39.752Z,14.00
2023-04-28T00:24:06.219Z,14.00
2023-04-28T00:26:32.675Z,14.00
2023-04-28T00:28:59.155Z,14.00
2023-04-28T00:31:25.644Z,14.00
2023-04-28T00:33:52.164Z,14.00
2023-04-28T00:36:18.644Z,14.00
2023-04-28T00:38:45.121Z,14.00
2023-04-28T00:41:11.595Z,14.00
2023-04-28T00:43:38.091Z,14.00
2023-04-28T00:46:04.586Z,14.00
2023-04-28T00:48:31.105Z,13.90
2023-04-28T00:50:57.576Z,14.00
2023-04-28T00:53:24.052Z,13.90
2023-04-28T00:55:50.529Z,13.90
2023-04-28T00:58:17.018Z,14.00
2023-04-28T01:00:44.965Z,13.90
2023-04-28T01:03:11.544Z,14.00
2023-04-28T01:05:38.174Z,13.90
2023-04-28T01:08:04.668Z,13.90
2023-04-28T01:10:31.150Z,13.90
2023-04-28T01:12:57.620Z,13.90
2023-04-28T01:15:24.076Z,14.00
2023-04-28T01:17:50.559Z,13.90
2023-04-28T01:20:17.066Z,13.90
2023-04-28T01:22:43.561Z,13.90
2023-04-28T01:25:10.041Z,13.90
2023-04-28T01:27:36.521Z,13.90
2023-04-28T01:30:03.005Z,13.90
2023-04-28T01:32:33.287Z,14.00
2023-04-28T01:34:59.805Z,14.00
2023-04-28T01:37:26.301Z,14.00
2023-04-28T01:39:52.801Z,14.00
2023-04-28T01:42:19.277Z,14.00
2023-04-28T01:44:45.755Z,14.00
2023-04-28T01:47:12.241Z,14.00
2023-04-28T01:49:38.727Z,14.00
2023-04-28T01:52:05.197Z,14.00
2023-04-28T01:54:31.806Z,14.00
2023-04-28T01:56:58.303Z,14.00
2023-04-28T01:59:24.762Z,14.00
2023-04-28T02:01:51.277Z,14.00
2023-04-28T02:04:18.079Z,14.00
2023-04-28T02:06:44.813Z,14.00
2023-04-28T02:09:11.298Z,14.00
2023-04-28T02:11:37.763Z,14.00
2023-04-28T02:14:04.233Z,14.00
2023-04-28T02:16:30.798Z,14.00
2023-04-28T02:18:57.302Z,14.00
2023-04-28T02:21:23.787Z,14.00
2023-04-28T02:23:50.246Z,14.00
2023-04-28T02:26:16.735Z,14.00
2023-04-28T02:28:43.219Z,13.90
2023-04-28T02:31:09.756Z,14.00
2023-04-28T02:33:36.289Z,14.00
2023-04-28T02:36:02.769Z,13.90
2023-04-28T02:38:29.264Z,13.90
2023-04-28T02:40:55.730Z,13.90
2023-04-28T02:43:22.218Z,13.90
2023-04-28T02:45:48.688Z,14.00
2023-04-28T02:48:15.178Z,13.90
2023-04-28T02:50:41.676Z,14.00
2023-04-28T02:53:08.133Z,14.00
2023-04-28T02:55:34.610Z,13.90
2023-04-28T02:58:01.203Z,13.90
2023-04-28T03:00:27.680Z,13.90
2023-04-28T03:02:54.294Z,13.90
2023-04-28T03:05:20.838Z,13.90
2023-04-28T03:07:47.304Z,13.90
2023-04-28T03:10:13.774Z,13.90
2023-04-28T03:12:40.241Z,13.90
2023-04-28T03:15:06.720Z,13.90
2023-04-28T03:17:33.297Z,13.90
2023-04-28T03:19:59.830Z,13.90
2023-04-28T03:22:26.295Z,13.90
2023-04-28T03:24:52.781Z,13.80
2023-04-28T03:27:19.263Z,13.80
2023-04-28T03:29:45.744Z,13.80
2023-04-28T03:32:12.260Z,13.90
2023-04-28T03:34:38.768Z,13.90
2023-04-28T03:37:05.241Z,13.80
2023-04-28T03:39:31.709Z,13.80
2023-04-28T03:41:58.184Z,13.90
2023-04-28T03:44:24.679Z,13.80
2023-04-28T03:46:51.137Z,13.90
2023-04-28T03:49:17.605Z,13.80
2023-04-28T03:51:44.093Z,13.90
2023-04-28T03:54:10.567Z,13.90
2023-04-28T03:56:37.045Z,13.80
2023-04-28T03:59:03.512Z,13.80
2023-04-28T04:01:29.991Z,13.80
2023-04-28T04:03:56.823Z,13.90
2023-04-28T04:06:23.451Z,13.80
2023-04-28T04:08:49.958Z,13.80
2023-04-28T04:11:16.418Z,13.80
2023-04-28T04:13:42.886Z,13.80
2023-04-28T04:16:09.370Z,13.80
2023-04-28T04:18:35.909Z,13.80
2023-04-28T04:21:02.384Z,13.80
2023-04-28T04:23:28.861Z,13.80
2023-04-28T04:25:55.332Z,13.80
2023-04-28T04:28:21.812Z,13.80
2023-04-28T04:30:48.340Z,13.80
2023-04-28T04:33:14.820Z,13.80
2023-04-28T04:35:41.291Z,13.80
2023-04-28T04:38:07.753Z,13.80
2023-04-28T04:40:39.168Z,13.80
2023-04-28T04:43:05.645Z,13.80
2023-04-28T04:45:32.130Z,13.80
2023-04-28T04:47:58.624Z,13.80
2023-04-28T04:50:25.105Z,13.80
2023-04-28T04:52:57.218Z,13.80
2023-04-28T04:55:23.712Z,13.80
2023-04-28T04:57:50.190Z,13.80
2023-04-28T05:00:16.654Z,13.80
2023-04-28T05:02:43.252Z,13.80
2023-04-28T05:05:20.717Z,13.80
2023-04-28T05:07:48.062Z,13.80
2023-04-28T05:10:14.533Z,13.80
2023-04-28T05:12:41.013Z,13.80
2023-04-28T05:15:07.492Z,13.80
2023-04-28T05:17:34.033Z,13.80
2023-04-28T05:20:00.519Z,13.80
2023-04-28T05:22:27.005Z,13.80
2023-04-28T05:24:53.507Z,13.80
2023-04-28T05:27:19.981Z,13.80
2023-04-28T05:29:46.459Z,13.80
2023-04-28T05:32:12.962Z,13.80
2023-04-28T05:34:39.479Z,13.80
2023-04-28T05:37:05.962Z,13.80
2023-04-28T05:39:32.445Z,13.80
2023-04-28T05:41:58.920Z,13.80
2023-04-28T05:44:25.412Z,13.80
2023-04-28T05:46:51.975Z,13.80
2023-04-28T05:49:18.494Z,13.80
2023-04-28T05:51:44.975Z,13.90
2023-04-28T05:54:11.456Z,13.80
2023-04-28T05:56:37.936Z,13.80
2023-04-28T05:59:04.503Z,13.80
2023-04-28T06:01:31.048Z,13.90
2023-04-28T06:03:57.691Z,13.80
2023-04-28T06:06:24.417Z,13.90
2023-04-28T06:08:50.889Z,13.90
2023-04-28T06:11:17.390Z,13.90
2023-04-28T06:13:43.851Z,13.90
2023-04-28T06:16:10.386Z,13.90
2023-04-28T06:18:36.904Z,13.90
2023-04-28T06:21:03.375Z,13.90
2023-04-28T06:23:29.838Z,13.90
2023-04-28T06:25:56.294Z,13.90
2023-04-28T06:28:22.782Z,13.90
2023-04-28T06:30:49.271Z,13.90
2023-04-28T06:33:15.746Z,13.90
2023-04-28T06:35:42.262Z,13.90
2023-04-28T06:38:08.731Z,13.90
2023-04-28T06:40:35.216Z,13.90
2023-04-28T06:43:01.682Z,13.90
2023-04-28T06:45:28.137Z,13.90
2023-04-28T06:47:54.633Z,13.90
2023-04-28T06:50:21.116Z,13.90
2023-04-28T06:52:47.604Z,13.90
2023-04-28T06:55:14.061Z,13.90
2023-04-28T06:57:40.545Z,13.90
2023-04-28T07:00:07.040Z,13.90
2023-04-28T07:02:33.620Z,13.90
2023-04-28T07:05:00.204Z,13.90
2023-04-28T07:07:26.685Z,13.90
2023-04-28T07:09:53.182Z,13.90
2023-04-28T07:12:19.672Z,13.90
2023-04-28T07:14:51.296Z,13.90
2023-04-28T07:17:17.760Z,13.90
2023-04-28T07:19:44.220Z,13.90
2023-04-28T07:22:10.695Z,13.90
2023-04-28T07:24:37.181Z,13.90
2023-04-28T07:27:03.671Z,14.00
2023-04-28T07:29:30.149Z,14.00
2023-04-28T07:31:56.651Z,14.00
2023-04-28T07:34:23.135Z,14.00
2023-04-28T07:36:49.590Z,14.00
2023-04-28T07:39:16.068Z,14.00
2023-04-28T07:41:42.548Z,13.90
2023-04-28T07:44:09.016Z,14.00
2023-04-28T07:46:35.631Z,14.00
2023-04-28T07:49:02.127Z,14.00
2023-04-28T07:51:28.633Z,14.00
2023-04-28T07:53:55.102Z,14.00
2023-04-28T07:56:21.549Z,14.00
2023-04-28T07:58:48.044Z,14.00
2023-04-28T08:01:14.549Z,14.00
2023-04-28T08:03:41.254Z,14.00
2023-04-28T08:06:07.915Z,14.00
2023-04-28T08:08:34.425Z,14.00
2023-04-28T08:11:00.850Z,14.10
2023-04-28T08:13:27.319Z,14.10
2023-04-28T08:15:53.841Z,14.10
2023-04-28T08:18:20.398Z,14.10
2023-04-28T08:20:46.899Z,14.10
2023-04-28T08:23:13.390Z,14.10
2023-04-28T08:25:39.856Z,14.10
2023-04-28T08:28:06.330Z,14.10
2023-04-28T08:30:32.802Z,14.10
2023-04-28T08:32:59.299Z,14.10
2023-04-28T08:35:25.772Z,14.10
2023-04-28T08:37:52.265Z,14.10
2023-04-28T08:40:18.751Z,14.20
2023-04-28T08:42:45.229Z,14.20
2023-04-28T08:45:11.910Z,14.20
2023-04-28T08:47:38.503Z,14.20
2023-04-28T08:50:05.157Z,14.20
2023-04-28T08:52:31.640Z,14.20
2023-04-28T08:54:58.120Z,14.20
2023-04-28T08:57:24.613Z,14.20
2023-04-28T08:59:51.075Z,14.20
2023-04-28T09:02:17.661Z,14.20
2023-04-28T09:04:44.342Z,14.20
2023-04-28T09:07:11.024Z,14.20
2023-04-28T09:09:39.170Z,14.20
2023-04-28T09:12:05.921Z,14.20
2023-04-28T09:14:32.391Z,14.20
2023-04-28T09:16:59.300Z,14.20
2023-04-28T09:19:25.813Z,14.20
2023-04-28T09:21:52.310Z,14.20
2023-04-28T09:24:19.001Z,14.20
2023-04-28T09:26:45.596Z,14.20
2023-04-28T09:29:12.092Z,14.20
2023-04-28T09:31:38.632Z,14.30
2023-04-28T09:34:05.837Z,14.20
2023-04-28T09:36:32.294Z,14.20
2023-04-28T09:38:58.781Z,14.20
2023-04-28T09:41:25.267Z,14.20
2023-04-28T09:43:51.776Z,14.20
2023-04-28T09:46:18.297Z,14.30
2023-04-28T09:48:44.819Z,14.20
2023-04-28T09:51:13.080Z,14.30
2023-04-28T09:53:39.788Z,14.30
2023-04-28T09:56:06.274Z,14.30
2023-04-28T09:58:32.781Z,14.30
2023-04-28T10:00:59.320Z,14.30
2023-04-28T10:04:07.031Z,14.30
2023-04-28T10:06:12.278Z,14.30
2023-04-28T10:08:38.734Z,14.30
2023-04-28T10:11:05.251Z,14.30
2023-04-28T10:13:31.733Z,14.30
2023-04-28T10:15:58.503Z,14.30
2023-04-28T10:18:25.177Z,14.30
2023-04-28T10:20:51.640Z,14.30
2023-04-28T10:23:18.120Z,14.30
2023-04-28T10:25:44.603Z,14.30
2023-04-28T10:28:15.450Z,14.30
2023-04-28T10:30:41.904Z,14.30
2023-04-28T10:33:08.429Z,14.30
2023-04-28T10:35:35.115Z,14.30
2023-04-28T10:38:01.624Z,14.30
2023-04-28T10:40:28.121Z,14.30
2023-04-28T10:42:54.583Z,14.30
2023-04-28T10:45:21.059Z,14.30
2023-04-28T10:47:47.519Z,14.30
2023-04-28T10:50:14.076Z,14.30
2023-04-28T10:52:40.593Z,14.30
2023-04-28T10:55:19.241Z,14.30
2023-04-28T10:57:48.178Z,14.40
2023-04-28T11:00:14.829Z,14.30
2023-04-28T11:02:43.807Z,14.30
2023-04-28T11:05:11.239Z,14.30
2023-04-28T11:07:37.773Z,14.30
2023-04-28T11:10:04.243Z,14.30
2023-04-28T11:12:31.182Z,14.30
2023-04-28T11:14:58.142Z,14.40
2023-04-28T11:17:24.669Z,14.30
2023-04-28T11:19:51.187Z,14.30
2023-04-28T11:22:17.678Z,14.30
2023-04-28T11:24:44.157Z,14.40
2023-04-28T11:27:10.624Z,14.40
2023-04-28T11:29:37.100Z,14.40
2023-04-28T11:32:03.713Z,14.40
2023-04-28T11:34:30.321Z,14.40
2023-04-28T11:36:56.782Z,14.40
2023-04-28T11:39:27.510Z,14.40
2023-04-28T11:41:53.980Z,14.40
2023-04-28T11:44:20.499Z,14.40
2023-04-28T11:46:46.980Z,14.40
2023-04-28T11:49:13.481Z,14.40
2023-04-28T11:51:39.955Z,14.40
2023-04-28T11:54:06.445Z,14.40
2023-04-28T11:56:32.921Z,14.40
2023-04-28T11:58:59.979Z,14.40
2023-04-28T12:01:27.667Z,14.40
2023-04-28T12:03:54.192Z,14.40
2023-04-28T12:06:20.729Z,14.40
2023-04-28T12:08:47.202Z,14.40
2023-04-28T12:11:13.690Z,14.40
2023-04-28T12:13:40.169Z,14.40
2023-04-28T12:16:06.734Z,14.40
2023-04-28T12:18:33.255Z,14.40
2023-04-28T12:20:59.731Z,14.40
2023-04-28T12:23:26.195Z,14.40
2023-04-28T12:25:52.683Z,14.40
2023-04-28T12:28:19.169Z,14.40
2023-04-28T12:30:45.664Z,14.40
2023-04-28T12:33:12.152Z,14.40
2023-04-28T12:35:38.620Z,14.40
2023-04-28T12:38:05.106Z,14.40
2023-04-28T12:40:31.582Z,14.40
2023-04-28T12:42:58.053Z,14.40
2023-04-28T12:45:24.530Z,14.40
2023-04-28T12:47:51.015Z,14.40
2023-04-28T12:50:20.237Z,14.40
2023-04-28T12:52:46.702Z,14.40
2023-04-28T12:55:13.203Z,14.40
2023-04-28T12:57:39.880Z,14.40
2023-04-28T13:00:06.437Z,14.40
2023-04-28T13:02:33.037Z,14.40
2023-04-28T13:04:59.759Z,14.40
2023-04-28T13:07:26.236Z,14.40
2023-04-28T13:09:52.726Z,14.40
2023-04-28T13:12:19.194Z,14.50
2023-04-28T13:14:45.670Z,14.40
2023-04-28T13:17:12.162Z,14.40
2023-04-28T13:19:38.660Z,14.40
2023-04-28T13:22:05.210Z,14.50
2023-04-28T13:24:31.754Z,14.50
2023-04-28T13:26:58.228Z,14.50
2023-04-28T13:29:24.694Z,14.50
2023-04-28T13:31:51.296Z,14.40
2023-04-28T13:34:17.837Z,14.50
2023-04-28T13:36:44.366Z,14.50
2023-04-28T13:39:10.848Z,14.50
2023-04-28T13:41:37.320Z,14.50
2023-04-28T13:44:03.783Z,14.50
2023-04-28T13:46:30.260Z,14.50
2023-04-28T13:48:56.725Z,14.50
2023-04-28T13:51:23.230Z,14.50
2023-04-28T13:53:49.685Z,14.50
2023-04-28T13:56:16.181Z,14.50
2023-04-28T13:58:42.650Z,14.50
2023-04-28T14:01:09.165Z,14.50
2023-04-28T14:03:35.773Z,14.50
2023-04-28T14:06:03.646Z,14.50
2023-04-28T14:08:30.106Z,14.50
2023-04-28T14:10:56.588Z,14.50
2023-04-28T14:13:23.061Z,14.50
2023-04-28T14:15:58.515Z,14.50
2023-04-28T14:18:25.941Z,14.60
2023-04-28T14:20:52.422Z,14.50
2023-04-28T14:23:18.895Z,14.50
2023-04-28T14:25:45.357Z,14.50
2023-04-28T14:28:11.844Z,14.50
2023-04-28T14:30:38.320Z,14.50
2023-04-28T14:33:04.885Z,14.50
2023-04-28T14:35:31.401Z,14.50
2023-04-28T14:37:57.875Z,14.50
2023-04-28T14:40:24.334Z,14.60
2023-04-28T14:42:51.680Z,14.60
2023-04-28T14:45:18.161Z,14.50
2023-04-28T14:47:44.663Z,14.60
2023-04-28T14:50:13.212Z,14.50
2023-04-28T14:52:40.445Z,14.60
2023-04-28T14:55:08.019Z,14.50
2023-04-28T14:57:34.504Z,14.60
2023-04-28T15:00:00.985Z,14.60
2023-04-28T15:02:28.047Z,14.60
2023-04-28T15:04:54.723Z,14.60
2023-04-28T15:07:21.352Z,14.50
2023-04-28T15:09:47.827Z,14.60
2023-04-28T15:12:14.285Z,14.60
2023-04-28T15:14:40.743Z,14.60
2023-04-28T15:17:07.215Z,14.60
2023-04-28T15:19:33.694Z,14.60
2023-04-28T15:22:03.699Z,14.60
2023-04-28T15:24:30.173Z,14.60
2023-04-28T15:26:56.673Z,14.60
2023-04-28T15:29:23.158Z,14.60
2023-04-28T15:31:49.677Z,14.60
2023-04-28T15:34:16.155Z,14.60
2023-04-28T15:36:42.648Z,14.60
2023-04-28T15:39:09.113Z,14.60
2023-04-28T15:41:35.577Z,14.70
2023-04-28T15:44:02.061Z,14.60
2023-04-28T15:46:28.532Z,14.60
2023-04-28T15:48:55.012Z,14.60
2023-04-28T15:51:21.489Z,14.60
2023-04-28T15:53:47.957Z,14.60
2023-04-28T15:56:14.438Z,14.60
2023-04-28T15:58:40.932Z,14.60
2023-04-28T16:01:07.494Z,14.60
2023-04-28T16:03:34.138Z,14.60
2023-04-28T16:06:00.785Z,14.60
2023-04-28T16:08:27.298Z,14.60
2023-04-28T16:10:53.795Z,14.60
2023-04-28T16:13:20.286Z,14.70
2023-04-28T16:15:46.827Z,14.70
2023-04-28T16:18:13.331Z,14.60
2023-04-28T16:20:39.853Z,14.70
2023-04-28T16:23:06.338Z,14.70
2023-04-28T16:25:32.811Z,14.70
2023-04-28T16:27:59.290Z,14.70
2023-04-28T16:30:25.761Z,14.60
2023-04-28T16:32:52.231Z,14.70
2023-04-28T16:35:18.729Z,14.70
2023-04-28T16:37:45.212Z,14.70
2023-04-28T16:40:11.708Z,14.70
2023-04-28T16:42:38.212Z,14.70
2023-04-28T16:45:04.674Z,14.70
2023-04-28T16:47:33.814Z,14.70
2023-04-28T16:50:00.305Z,14.70
2023-04-28T16:52:26.788Z,14.60
2023-04-28T16:54:53.270Z,14.70
2023-04-28T16:57:19.745Z,14.70
2023-04-28T16:59:46.204Z,14.70
2023-04-28T17:02:12.688Z,14.70
2023-04-28T17:04:39.405Z,14.70
2023-04-28T17:07:05.991Z,14.70
2023-04-28T17:09:32.478Z,14.70
2023-04-28T17:11:58.938Z,14.70
2023-04-28T17:14:25.415Z,14.70
2023-04-28T17:16:51.890Z,14.70
2023-04-28T17:19:18.356Z,14.70
2023-04-28T17:21:44.824Z,14.70
2023-04-28T17:24:11.305Z,14.70
2023-04-28T17:26:37.775Z,14.70
2023-04-28T17:29:04.262Z,14.70
2023-04-28T17:31:30.762Z,14.70
2023-04-28T17:33:57.237Z,14.70
2023-04-28T17:36:23.706Z,14.70
2023-04-28T17:38:50.192Z,14.70
2023-04-28T17:41:16.677Z,14.70
2023-04-28T17:43:43.179Z,14.70
2023-04-28T17:46:09.714Z,14.70
2023-04-28T17:48:36.225Z,14.70
2023-04-28T17:51:02.705Z,14.70
2023-04-28T17:53:33.825Z,14.70
2023-04-28T17:56:00.296Z,14.70
2023-04-28T17:58:26.862Z,14.70
2023-04-28T18:00:53.328Z,14.70
2023-04-28T18:03:19.916Z,14.70
2023-04-28T18:05:46.451Z,14.70
2023-04-28T18:08:12.940Z,14.70
2023-04-28T18:10:39.414Z,14.70
2023-04-28T18:13:05.885Z,14.70
2023-04-28T18:15:32.360Z,14.70
2023-04-28T18:17:58.841Z,14.70
2023-04-28T18:20:25.390Z,14.70
2023-04-28T18:22:51.879Z,14.70
2023-04-28T18:25:18.370Z,14.70
2023-04-28T18:27:44.834Z,14.70
2023-04-28T18:30:11.326Z,14.70
2023-04-28T18:32:37.771Z,14.70
2023-04-28T18:35:04.237Z,14.70
2023-04-28T18:37:30.702Z,14.70
2023-04-28T18:39:57.236Z,14.70
2023-04-28T18:42:23.696Z,14.70
2023-04-28T18:44:50.362Z,14.70
2023-04-28T18:47:16.970Z,14.70
2023-04-28T18:49:43.547Z,14.70
2023-04-28T18:52:10.006Z,14.70
2023-04-28T18:54:36.499Z,14.70
2023-04-28T18:57:02.986Z,14.70
2023-04-28T18:59:29.461Z,14.60
2023-04-28T19:01:55.932Z,14.70
2023-04-28T19:04:22.541Z,14.70
2023-04-28T19:06:49.169Z,14.70
2023-04-28T19:09:15.648Z,14.70
2023-04-28T19:11:42.104Z,14.70
2023-04-28T19:14:08.602Z,14.70
2023-04-28T19:16:35.092Z,14.70
2023-04-28T19:19:01.563Z,14.70
2023-04-28T19:21:28.038Z,14.70
2023-04-28T19:23:54.524Z,14.60
2023-04-28T19:26:21.079Z,14.60
2023-04-28T19:28:47.617Z,14.70
2023-04-28T19:31:14.109Z,14.70
2023-04-28T19:33:40.593Z,14.70
2023-04-28T19:36:07.073Z,14.70
2023-04-28T19:38:33.545Z,14.70
2023-04-28T19:41:00.023Z,14.70
2023-04-28T19:43:26.498Z,14.70
2023-04-28T19:45:52.984Z,14.70
2023-04-28T19:48:19.469Z,14.60
2023-04-28T19:50:45.950Z,14.70
2023-04-28T19:53:12.419Z,14.60
2023-04-28T19:55:38.907Z,14.70
2023-04-28T19:58:05.382Z,14.70
2023-04-28T20:00:32.673Z,14.60
2023-04-28T20:02:59.450Z,14.60
2023-04-28T20:05:26.042Z,14.60
2023-04-28T20:07:54.149Z,14.60
2023-04-28T20:10:22.386Z,14.60
2023-04-28T20:12:52.141Z,14.60
2023-04-28T20:15:18.736Z,14.60
2023-04-28T20:17:45.334Z,14.60
2023-04-28T20:20:11.816Z,14.60
2023-04-28T20:22:38.279Z,14.60
2023-04-28T20:25:09.959Z,14.60
2023-04-28T20:27:36.415Z,14.60
2023-04-28T20:30:02.901Z,14.60
2023-04-28T20:32:29.374Z,14.60
2023-04-28T20:34:55.854Z,14.60
2023-04-28T20:37:22.339Z,14.60
2023-04-28T20:39:48.936Z,14.60
2023-04-28T20:42:15.551Z,14.60
2023-04-28T20:44:42.034Z,14.70
2023-04-28T20:47:08.524Z,14.60
2023-04-28T20:49:35.105Z,14.60
2023-04-28T20:52:01.587Z,14.60
2023-04-28T20:54:28.117Z,14.60
2023-04-28T20:56:54.605Z,14.60
2023-04-28T20:59:21.104Z,14.60
2023-04-28T21:01:47.619Z,14.60
2023-04-28T21:04:14.333Z,14.60
2023-04-28T21:06:40.901Z,14.60
2023-04-28T21:09:07.396Z,14.60
2023-04-28T21:11:33.903Z,14.60
2023-04-28T21:14:00.401Z,14.60
2023-04-28T21:16:26.934Z,14.60
2023-04-28T21:18:53.446Z,14.60
2023-04-28T21:21:19.933Z,14.60
2023-04-28T21:23:46.387Z,14.60
2023-04-28T21:26:12.948Z,14.60
2023-04-28T21:28:39.514Z,14.60
2023-04-28T21:31:06.065Z,14.60
2023-04-28T21:33:32.541Z,14.60
2023-04-28T21:35:59.042Z,14.60
2023-04-28T21:38:25.499Z,14.60
2023-04-28T21:40:51.994Z,14.60
2023-04-28T21:43:18.464Z,14.60
2023-04-28T21:45:45.022Z,14.60
2023-04-28T21:48:11.593Z,14.60
2023-04-28T21:50:38.108Z,14.60
2023-04-28T21:53:04.558Z,14.60
2023-04-28T21:55:31.047Z,14.60
2023-04-28T21:57:59.965Z,14.60
2023-04-28T22:00:26.752Z,14.60
2023-04-28T22:02:53.326Z,14.60
2023-04-28T22:05:19.862Z,14.60
2023-04-28T22:07:46.314Z,14.60
2023-04-28T22:10:12.824Z,14.60
2023-04-28T22:12:39.303Z,14.60
2023-04-28T22:15:05.772Z,14.60
2023-04-28T22:17:32.246Z,14.60
2023-04-28T22:19:58.749Z,14.60
2023-04-28T22:22:25.221Z,14.60
2023-04-28T22:24:51.690Z,14.60
2023-04-28T22:27:18.167Z,14.60
2023-04-28T22:29:44.640Z,14.60
2023-04-28T22:32:11.114Z,14.60
2023-04-28T22:34:37.586Z,14.60
2023-04-28T22:37:04.103Z,14.60
2023-04-28T22:39:30.596Z,14.60
2023-04-28T22:41:57.068Z,14.60
2023-04-28T22:44:23.528Z,14.60
2023-04-28T22:46:50.069Z,14.60
2023-04-28T22:49:16.639Z,14.60
2023-04-28T22:51:43.124Z,14.60
2023-04-28T22:54:09.581Z,14.60
2023-04-28T22:56:36.084Z,14.60
2023-04-28T22:59:02.563Z,14.60
2023-04-28T23:01:29.064Z,14.60
2023-04-28T23:03:55.686Z,14.60
2023-04-28T23:06:22.293Z,14.60
2023-04-28T23:08:48.748Z,14.60
2023-04-28T23:11:15.234Z,14.60
2023-04-28T23:13:41.709Z,14.60
2023-04-28T23:16:08.227Z,14.60
2023-04-28T23:18:34.719Z,14.60
2023-04-28T23:21:01.210Z,14.60
2023-04-28T23:23:28.043Z,14.60
2023-04-28T23:25:54.542Z,14.60
2023-04-28T23:28:20.998Z,14.60
2023-04-28T23:30:47.461Z,14.60
2023-04-28T23:33:13.928Z,14.60
2023-04-28T23:35:40.417Z,14.60
2023-04-28T23:38:06.885Z,14.60
2023-04-28T23:40:34.098Z,14.50
2023-04-28T23:43:00.588Z,14.60
2023-04-28T23:45:27.102Z,14.50
2023-04-28T23:47:53.599Z,14.60
2023-04-28T23:50:20.126Z,14.50
2023-04-28T23:52:46.619Z,14.50
2023-04-28T23:55:13.161Z,14.60
2023-04-28T23:57:39.733Z,14.50
